sensor_id;sensor_type;location;lat;lon;timestamp;pressure;altitude;pressure_sealevel;temperature;humidity
58070;BME280;43863;52.256;21.048;2022-07-23T00:01:35;100514.25;;;25.42;49.96
58070;BME280;43863;52.256;21.048;2022-07-23T00:04:33;100509.06;;;25.40;49.93
58070;BME280;43863;52.256;21.048;2022-07-23T00:07:02;100508.81;;;25.37;49.99
58070;BME280;43863;52.256;21.048;2022-07-23T00:09:30;100513.44;;;25.36;50.15
58070;BME280;43863;52.256;21.048;2022-07-23T00:11:59;100508.53;;;25.33;50.28
58070;BME280;43863;52.256;21.048;2022-07-23T00:14:29;100507.47;;;25.29;50.35
58070;BME280;43863;52.256;21.048;2022-07-23T00:17:22;100517.78;;;25.27;50.43
58070;BME280;43863;52.256;21.048;2022-07-23T00:19:51;100508.81;;;25.22;50.47
58070;BME280;43863;52.256;21.048;2022-07-23T00:22:22;100510.72;;;25.21;50.53
58070;BME280;43863;52.256;21.048;2022-07-23T00:24:50;100515.34;;;25.21;50.71
58070;BME280;43863;52.256;21.048;2022-07-23T00:27:39;100507.41;;;25.14;50.88
58070;BME280;43863;52.256;21.048;2022-07-23T00:30:09;100508.22;;;25.09;50.96
58070;BME280;43863;52.256;21.048;2022-07-23T00:33:02;100512.28;;;25.07;50.98
58070;BME280;43863;52.256;21.048;2022-07-23T00:35:33;100509.28;;;25.03;51.37
58070;BME280;43863;52.256;21.048;2022-07-23T00:38:03;100520.69;;;25.00;51.31
58070;BME280;43863;52.256;21.048;2022-07-23T00:40:31;100509.28;;;24.98;51.39
58070;BME280;43863;52.256;21.048;2022-07-23T00:42:59;100513.63;;;24.94;51.69
58070;BME280;43863;52.256;21.048;2022-07-23T00:45:33;100515.50;;;24.93;51.73
58070;BME280;43863;52.256;21.048;2022-07-23T00:48:05;100507.34;;;24.88;51.83
58070;BME280;43863;52.256;21.048;2022-07-23T00:50:35;100508.16;;;24.89;51.94
58070;BME280;43863;52.256;21.048;2022-07-23T00:53:04;100505.97;;;24.86;51.92
58070;BME280;43863;52.256;21.048;2022-07-23T00:55:59;100503.81;;;24.83;52.20
58070;BME280;43863;52.256;21.048;2022-07-23T00:58:53;100507.06;;;24.80;52.48
58070;BME280;43863;52.256;21.048;2022-07-23T01:01:21;100504.06;;;24.76;52.60
58070;BME280;43863;52.256;21.048;2022-07-23T01:03:53;100508.41;;;24.77;52.66
58070;BME280;43863;52.256;21.048;2022-07-23T01:06:21;100507.59;;;24.77;52.57
58070;BME280;43863;52.256;21.048;2022-07-23T01:09:14;100517.38;;;24.78;52.73
58070;BME280;43863;52.256;21.048;2022-07-23T01:11:43;100511.91;;;24.72;52.75
58070;BME280;43863;52.256;21.048;2022-07-23T01:17:30;100516.75;;;24.60;52.87
58070;BME280;43863;52.256;21.048;2022-07-23T01:19:59;100511.06;;;24.62;53.21
58070;BME280;43863;52.256;21.048;2022-07-23T01:22:32;100515.41;;;24.63;53.16
58070;BME280;43863;52.256;21.048;2022-07-23T01:25:33;100515.38;;;24.58;53.50
58070;BME280;43863;52.256;21.048;2022-07-23T01:28:03;100518.38;;;24.56;53.78
58070;BME280;43863;52.256;21.048;2022-07-23T01:30:31;100510.16;;;24.46;53.70
58070;BME280;43863;52.256;21.048;2022-07-23T01:33:01;100512.34;;;24.44;53.68
58070;BME280;43863;52.256;21.048;2022-07-23T01:35:29;100511.75;;;24.42;53.87
58070;BME280;43863;52.256;21.048;2022-07-23T01:38:23;100515.78;;;24.34;54.05
58070;BME280;43863;52.256;21.048;2022-07-23T01:40:52;100519.59;;;24.33;54.41
58070;BME280;43863;52.256;21.048;2022-07-23T01:43:35;100513.59;;;24.26;54.44
58070;BME280;43863;52.256;21.048;2022-07-23T01:46:05;100523.63;;;24.25;54.32
58070;BME280;43863;52.256;21.048;2022-07-23T01:48:39;100527.97;;;24.26;54.44
58070;BME280;43863;52.256;21.048;2022-07-23T01:51:32;100516.84;;;24.23;54.70
58070;BME280;43863;52.256;21.048;2022-07-23T01:54:08;100516.31;;;24.26;54.71
58070;BME280;43863;52.256;21.048;2022-07-23T01:56:44;100521.75;;;24.26;55.18
58070;BME280;43863;52.256;21.048;2022-07-23T01:59:14;100519.88;;;24.32;55.31
58070;BME280;43863;52.256;21.048;2022-07-23T02:01:45;100511.97;;;24.30;55.23
58070;BME280;43863;52.256;21.048;2022-07-23T02:04:20;100512.25;;;24.28;55.30
58070;BME280;43863;52.256;21.048;2022-07-23T02:06:54;100514.44;;;24.32;55.45
58070;BME280;43863;52.256;21.048;2022-07-23T02:09:28;100509.00;;;24.32;55.41
58070;BME280;43863;52.256;21.048;2022-07-23T02:12:22;100506.00;;;24.33;55.27
58070;BME280;43863;52.256;21.048;2022-07-23T02:14:59;100506.81;;;24.34;55.31
58070;BME280;43863;52.256;21.048;2022-07-23T02:17:29;100504.13;;;24.34;55.27
58070;BME280;43863;52.256;21.048;2022-07-23T02:19:57;100499.78;;;24.33;55.39
58070;BME280;43863;52.256;21.048;2022-07-23T02:22:25;100506.53;;;24.30;55.49
58070;BME280;43863;52.256;21.048;2022-07-23T02:24:53;100504.13;;;24.28;55.79
58070;BME280;43863;52.256;21.048;2022-07-23T02:27:47;100506.00;;;24.33;55.60
58070;BME280;43863;52.256;21.048;2022-07-23T02:30:15;100501.41;;;24.34;55.63
58070;BME280;43863;52.256;21.048;2022-07-23T02:32:43;100501.16;;;24.35;55.74
58070;BME280;43863;52.256;21.048;2022-07-23T02:35:18;100500.34;;;24.35;55.63
58070;BME280;43863;52.256;21.048;2022-07-23T02:37:48;100499.50;;;24.34;55.65
58070;BME280;43863;52.256;21.048;2022-07-23T02:40:18;100494.06;;;24.34;55.90
58070;BME280;43863;52.256;21.048;2022-07-23T02:42:47;100496.25;;;24.32;56.10
58070;BME280;43863;52.256;21.048;2022-07-23T02:45:17;100488.88;;;24.27;56.21
58070;BME280;43863;52.256;21.048;2022-07-23T02:47:55;100495.13;;;24.28;56.15
58070;BME280;43863;52.256;21.048;2022-07-23T02:50:24;100489.94;;;24.21;56.23
58070;BME280;43863;52.256;21.048;2022-07-23T02:52:55;100486.97;;;24.23;56.35
58070;BME280;43863;52.256;21.048;2022-07-23T02:55:24;100485.06;;;24.23;56.33
58070;BME280;43863;52.256;21.048;2022-07-23T02:57:53;100492.69;;;24.26;56.30
58070;BME280;43863;52.256;21.048;2022-07-23T03:00:21;100485.88;;;24.24;56.19
58070;BME280;43863;52.256;21.048;2022-07-23T03:02:49;100483.38;;;24.12;56.29
58070;BME280;43863;52.256;21.048;2022-07-23T03:05:17;100486.88;;;24.02;56.65
58070;BME280;43863;52.256;21.048;2022-07-23T03:07:45;100486.31;;;24.00;56.60
58070;BME280;43863;52.256;21.048;2022-07-23T03:10:13;100485.00;;;24.08;56.59
58070;BME280;43863;52.256;21.048;2022-07-23T03:12:43;100487.47;;;24.15;56.26
58070;BME280;43863;52.256;21.048;2022-07-23T03:15:12;100479.31;;;24.15;56.38
58070;BME280;43863;52.256;21.048;2022-07-23T03:17:40;100488.25;;;24.10;56.27
58070;BME280;43863;52.256;21.048;2022-07-23T03:20:11;100481.16;;;24.04;56.48
58070;BME280;43863;52.256;21.048;2022-07-23T03:22:39;100482.28;;;24.08;56.46
58070;BME280;43863;52.256;21.048;2022-07-23T03:25:08;100487.19;;;24.11;56.22
58070;BME280;43863;52.256;21.048;2022-07-23T03:27:36;100490.94;;;24.05;56.31
58070;BME280;43863;52.256;21.048;2022-07-23T03:30:05;100484.19;;;24.13;56.02
58070;BME280;43863;52.256;21.048;2022-07-23T03:32:34;100490.47;;;24.18;55.88
58070;BME280;43863;52.256;21.048;2022-07-23T03:35:02;100503.19;;;24.13;55.88
58070;BME280;43863;52.256;21.048;2022-07-23T03:37:34;100492.06;;;24.09;55.92
58070;BME280;43863;52.256;21.048;2022-07-23T03:40:02;100494.25;;;24.12;55.77
58070;BME280;43863;52.256;21.048;2022-07-23T03:42:30;100498.56;;;24.08;55.92
58070;BME280;43863;52.256;21.048;2022-07-23T03:44:58;100498.25;;;24.04;56.06
58070;BME280;43863;52.256;21.048;2022-07-23T03:47:26;100496.13;;;24.12;55.83
58070;BME280;43863;52.256;21.048;2022-07-23T03:49:54;100500.22;;;24.14;55.89
58070;BME280;43863;52.256;21.048;2022-07-23T03:52:22;100501.88;;;24.20;55.85
58070;BME280;43863;52.256;21.048;2022-07-23T03:54:51;100511.94;;;24.25;55.70
58070;BME280;43863;52.256;21.048;2022-07-23T03:57:19;100504.91;;;24.29;55.73
58070;BME280;43863;52.256;21.048;2022-07-23T03:59:47;100503.59;;;24.32;55.60
58070;BME280;43863;52.256;21.048;2022-07-23T04:02:15;100511.69;;;24.26;55.76
58070;BME280;43863;52.256;21.048;2022-07-23T04:04:43;100520.09;;;24.25;55.86
58070;BME280;43863;52.256;21.048;2022-07-23T04:07:11;100508.69;;;24.28;55.98
58070;BME280;43863;52.256;21.048;2022-07-23T04:09:39;100510.59;;;24.27;56.23
58070;BME280;43863;52.256;21.048;2022-07-23T04:12:12;100513.09;;;24.39;56.10
58070;BME280;43863;52.256;21.048;2022-07-23T04:14:40;100514.25;;;24.43;55.81
58070;BME280;43863;52.256;21.048;2022-07-23T04:17:08;100517.97;;;24.37;56.11
58070;BME280;43863;52.256;21.048;2022-07-23T04:19:36;100521.31;;;24.44;56.02
58070;BME280;43863;52.256;21.048;2022-07-23T04:22:09;100518.13;;;24.63;55.94
58070;BME280;43863;52.256;21.048;2022-07-23T04:24:38;100512.69;;;24.63;55.60
58070;BME280;43863;52.256;21.048;2022-07-23T04:27:08;100516.16;;;24.48;56.03
58070;BME280;43863;52.256;21.048;2022-07-23T04:29:36;100517.03;;;24.64;55.82
58070;BME280;43863;52.256;21.048;2022-07-23T04:32:04;100518.47;;;24.87;55.05
58070;BME280;43863;52.256;21.048;2022-07-23T04:34:33;100514.13;;;24.86;55.23
58070;BME280;43863;52.256;21.048;2022-07-23T04:37:01;100515.50;;;24.93;55.26
58070;BME280;43863;52.256;21.048;2022-07-23T04:39:31;100506.06;;;25.11;54.70
58070;BME280;43863;52.256;21.048;2022-07-23T04:41:59;100510.44;;;25.17;54.43
58070;BME280;43863;52.256;21.048;2022-07-23T04:44:28;100502.28;;;25.28;54.21
58070;BME280;43863;52.256;21.048;2022-07-23T04:46:56;100496.28;;;25.26;54.19
58070;BME280;43863;52.256;21.048;2022-07-23T04:49:24;100505.00;;;25.28;54.32
58070;BME280;43863;52.256;21.048;2022-07-23T04:51:52;100500.13;;;25.30;54.18
58070;BME280;43863;52.256;21.048;2022-07-23T04:54:20;100501.47;;;25.32;54.21
58070;BME280;43863;52.256;21.048;2022-07-23T04:56:48;100509.34;;;25.34;54.28
58070;BME280;43863;52.256;21.048;2022-07-23T04:59:17;100505.56;;;25.50;53.67
58070;BME280;43863;52.256;21.048;2022-07-23T05:01:48;100506.38;;;25.66;53.50
58070;BME280;43863;52.256;21.048;2022-07-23T05:04:18;100513.19;;;25.74;53.41
58070;BME280;43863;52.256;21.048;2022-07-23T05:06:47;100507.19;;;25.77;53.03
58070;BME280;43863;52.256;21.048;2022-07-23T05:09:15;100506.63;;;25.80;52.61
58070;BME280;43863;52.256;21.048;2022-07-23T05:11:43;100515.09;;;25.89;52.66
58070;BME280;43863;52.256;21.048;2022-07-23T05:14:11;100520.00;;;25.92;52.46
58070;BME280;43863;52.256;21.048;2022-07-23T05:16:40;100520.50;;;25.94;52.71
58070;BME280;43863;52.256;21.048;2022-07-23T05:19:13;100524.03;;;25.99;52.39
58070;BME280;43863;52.256;21.048;2022-07-23T05:21:42;100514.50;;;26.07;52.46
58070;BME280;43863;52.256;21.048;2022-07-23T05:24:11;100515.88;;;26.09;52.21
58070;BME280;43863;52.256;21.048;2022-07-23T05:26:39;100517.75;;;26.19;52.17
58070;BME280;43863;52.256;21.048;2022-07-23T05:29:07;100508.72;;;26.29;51.97
58070;BME280;43863;52.256;21.048;2022-07-23T05:31:35;100515.53;;;26.31;51.75
58070;BME280;43863;52.256;21.048;2022-07-23T05:34:03;100512.22;;;26.40;51.66
58070;BME280;43863;52.256;21.048;2022-07-23T05:36:33;100506.78;;;26.45;51.38
58070;BME280;43863;52.256;21.048;2022-07-23T05:39:02;100510.03;;;26.52;51.41
58070;BME280;43863;52.256;21.048;2022-07-23T05:41:34;100507.56;;;26.55;51.13
58070;BME280;43863;52.256;21.048;2022-07-23T05:44:03;100503.75;;;26.57;51.27
58070;BME280;43863;52.256;21.048;2022-07-23T05:46:33;100500.53;;;26.39;51.08
58070;BME280;43863;52.256;21.048;2022-07-23T05:49:06;100507.34;;;26.37;51.03
58070;BME280;43863;52.256;21.048;2022-07-23T05:52:04;100502.97;;;26.51;51.07
58070;BME280;43863;52.256;21.048;2022-07-23T05:54:51;100502.09;;;26.61;51.05
58070;BME280;43863;52.256;21.048;2022-07-23T05:57:19;100502.81;;;26.76;50.66
58070;BME280;43863;52.256;21.048;2022-07-23T05:59:52;100501.09;;;26.96;50.55
58070;BME280;43863;52.256;21.048;2022-07-23T06:02:20;100495.91;;;26.94;50.20
58070;BME280;43863;52.256;21.048;2022-07-23T06:04:48;100505.22;;;26.88;50.59
58070;BME280;43863;52.256;21.048;2022-07-23T06:07:36;100502.69;;;27.02;50.19
58070;BME280;43863;52.256;21.048;2022-07-23T06:10:05;100503.41;;;27.18;49.77
58070;BME280;43863;52.256;21.048;2022-07-23T06:12:33;100498.44;;;27.30;49.66
58070;BME280;43863;52.256;21.048;2022-07-23T06:15:02;100498.56;;;27.49;49.05
58070;BME280;43863;52.256;21.048;2022-07-23T06:17:32;100504.91;;;27.68;48.91
58070;BME280;43863;52.256;21.048;2022-07-23T06:20:00;100501.53;;;27.87;48.64
58070;BME280;43863;52.256;21.048;2022-07-23T06:22:31;100499.16;;;28.04;48.17
58070;BME280;43863;52.256;21.048;2022-07-23T06:24:59;100501.13;;;28.23;48.23
58070;BME280;43863;52.256;21.048;2022-07-23T06:27:28;100501.81;;;28.33;47.86
58070;BME280;43863;52.256;21.048;2022-07-23T06:29:56;100500.78;;;28.29;47.18
58070;BME280;43863;52.256;21.048;2022-07-23T06:32:25;100498.50;;;28.12;47.23
58070;BME280;43863;52.256;21.048;2022-07-23T06:34:53;100504.44;;;28.20;47.47
58070;BME280;43863;52.256;21.048;2022-07-23T06:37:22;100499.03;;;28.39;47.25
58070;BME280;43863;52.256;21.048;2022-07-23T06:39:50;100504.28;;;28.59;46.86
58070;BME280;43863;52.256;21.048;2022-07-23T06:42:18;100490.50;;;28.69;46.46
58070;BME280;43863;52.256;21.048;2022-07-23T06:44:50;100497.78;;;28.74;45.94
58070;BME280;43863;52.256;21.048;2022-07-23T06:47:18;100500.16;;;28.80;45.91
58070;BME280;43863;52.256;21.048;2022-07-23T06:49:46;100502.16;;;28.94;45.62
58070;BME280;43863;52.256;21.048;2022-07-23T06:52:14;100507.47;;;28.85;44.51
58070;BME280;43863;52.256;21.048;2022-07-23T06:54:42;100507.16;;;28.87;45.52
58070;BME280;43863;52.256;21.048;2022-07-23T06:57:10;100506.09;;;29.07;45.28
58070;BME280;43863;52.256;21.048;2022-07-23T06:59:38;100498.72;;;29.26;45.09
58070;BME280;43863;52.256;21.048;2022-07-23T07:02:09;100497.72;;;29.36;44.42
58070;BME280;43863;52.256;21.048;2022-07-23T07:04:37;100494.91;;;29.41;44.21
58070;BME280;43863;52.256;21.048;2022-07-23T07:07:05;100492.97;;;29.41;43.59
58070;BME280;43863;52.256;21.048;2022-07-23T07:09:33;100491.81;;;29.29;43.79
58070;BME280;43863;52.256;21.048;2022-07-23T07:12:01;100489.09;;;29.29;43.66
58070;BME280;43863;52.256;21.048;2022-07-23T07:14:29;100480.63;;;29.44;43.55
58070;BME280;43863;52.256;21.048;2022-07-23T07:16:57;100485.25;;;29.62;43.23
58070;BME280;43863;52.256;21.048;2022-07-23T07:19:25;100481.72;;;29.76;43.20
58070;BME280;43863;52.256;21.048;2022-07-23T07:21:53;100481.72;;;29.76;42.43
58070;BME280;43863;52.256;21.048;2022-07-23T07:24:21;100485.19;;;29.81;42.60
58070;BME280;43863;52.256;21.048;2022-07-23T07:26:52;100482.84;;;29.75;42.42
58070;BME280;43863;52.256;21.048;2022-07-23T07:29:20;100484.69;;;29.79;42.73
58070;BME280;43863;52.256;21.048;2022-07-23T07:31:48;100483.78;;;29.84;42.55
58070;BME280;43863;52.256;21.048;2022-07-23T07:34:16;100475.44;;;29.75;42.59
58070;BME280;43863;52.256;21.048;2022-07-23T07:36:44;100480.41;;;29.87;42.10
58070;BME280;43863;52.256;21.048;2022-07-23T07:39:12;100472.75;;;30.03;42.51
58070;BME280;43863;52.256;21.048;2022-07-23T07:41:40;100466.38;;;30.21;42.46
58070;BME280;43863;52.256;21.048;2022-07-23T07:44:08;100472.66;;;30.35;41.99
58070;BME280;43863;52.256;21.048;2022-07-23T07:46:36;100471.63;;;30.45;41.56
58070;BME280;43863;52.256;21.048;2022-07-23T07:49:04;100475.47;;;30.58;41.45
58070;BME280;43863;52.256;21.048;2022-07-23T07:51:34;100477.41;;;30.44;40.60
58070;BME280;43863;52.256;21.048;2022-07-23T07:54:02;100480.56;;;30.37;41.03
58070;BME280;43863;52.256;21.048;2022-07-23T07:56:31;100476.22;;;30.50;40.77
58070;BME280;43863;52.256;21.048;2022-07-23T07:58:59;100475.69;;;30.62;40.72
58070;BME280;43863;52.256;21.048;2022-07-23T08:01:28;100482.53;;;30.73;40.33
58070;BME280;43863;52.256;21.048;2022-07-23T08:03:56;100488.03;;;30.73;40.13
58070;BME280;43863;52.256;21.048;2022-07-23T08:06:25;100484.91;;;30.66;40.29
58070;BME280;43863;52.256;21.048;2022-07-23T08:08:53;100488.03;;;30.73;40.52
58070;BME280;43863;52.256;21.048;2022-07-23T08:11:20;100491.91;;;30.86;40.02
58070;BME280;43863;52.256;21.048;2022-07-23T08:13:48;100491.97;;;30.94;39.98
58070;BME280;43863;52.256;21.048;2022-07-23T08:16:16;100493.34;;;31.05;39.51
58070;BME280;43863;52.256;21.048;2022-07-23T08:18:47;100483.19;;;31.06;38.98
58070;BME280;43863;52.256;21.048;2022-07-23T08:21:18;100487.84;;;31.05;39.79
58070;BME280;43863;52.256;21.048;2022-07-23T08:23:46;100492.94;;;31.12;39.81
58070;BME280;43863;52.256;21.048;2022-07-23T08:26:14;100491.69;;;31.18;38.94
58070;BME280;43863;52.256;21.048;2022-07-23T08:28:42;100487.91;;;31.14;38.97
58070;BME280;43863;52.256;21.048;2022-07-23T08:31:10;100485.78;;;31.11;38.66
58070;BME280;43863;52.256;21.048;2022-07-23T08:33:39;100493.03;;;31.07;38.87
58070;BME280;43863;52.256;21.048;2022-07-23T08:36:07;100483.81;;;31.03;38.84
58070;BME280;43863;52.256;21.048;2022-07-23T08:38:36;100489.41;;;31.20;39.10
58070;BME280;43863;52.256;21.048;2022-07-23T08:41:05;100487.56;;;31.30;38.77
58070;BME280;43863;52.256;21.048;2022-07-23T08:43:35;100486.22;;;31.04;38.98
58070;BME280;43863;52.256;21.048;2022-07-23T08:46:03;100480.06;;;30.99;38.58
58070;BME280;43863;52.256;21.048;2022-07-23T08:48:33;100493.25;;;30.97;38.98
58070;BME280;43863;52.256;21.048;2022-07-23T08:51:04;100494.16;;;31.06;39.38
58070;BME280;43863;52.256;21.048;2022-07-23T08:53:35;100495.34;;;31.14;38.65
58070;BME280;43863;52.256;21.048;2022-07-23T08:56:05;100491.75;;;31.27;38.62
58070;BME280;43863;52.256;21.048;2022-07-23T08:58:38;100488.56;;;31.34;38.07
58070;BME280;43863;52.256;21.048;2022-07-23T09:01:07;100482.25;;;31.33;38.60
58070;BME280;43863;52.256;21.048;2022-07-23T09:03:38;100480.22;;;31.39;38.68
58070;BME280;43863;52.256;21.048;2022-07-23T09:06:11;100476.84;;;31.42;38.12
58070;BME280;43863;52.256;21.048;2022-07-23T09:08:44;100483.44;;;31.41;37.85
58070;BME280;43863;52.256;21.048;2022-07-23T09:11:17;100480.75;;;31.49;37.87
58070;BME280;43863;52.256;21.048;2022-07-23T09:13:53;100485.16;;;31.50;36.73
58070;BME280;43863;52.256;21.048;2022-07-23T09:16:29;100481.72;;;31.45;37.49
58070;BME280;43863;52.256;21.048;2022-07-23T09:19:02;100473.84;;;31.52;36.89
58070;BME280;43863;52.256;21.048;2022-07-23T09:21:41;100463.03;;;31.56;37.17
58070;BME280;43863;52.256;21.048;2022-07-23T09:24:12;100475.50;;;31.62;36.86
58070;BME280;43863;52.256;21.048;2022-07-23T09:26:43;100474.06;;;31.64;36.49
58070;BME280;43863;52.256;21.048;2022-07-23T09:29:19;100473.13;;;31.69;36.23
58070;BME280;43863;52.256;21.048;2022-07-23T09:31:59;100475.72;;;31.65;34.95
58070;BME280;43863;52.256;21.048;2022-07-23T09:34:31;100473.66;;;31.48;34.62
58070;BME280;43863;52.256;21.048;2022-07-23T09:37:16;100474.91;;;31.42;34.42
58070;BME280;43863;52.256;21.048;2022-07-23T09:39:48;100463.34;;;31.32;35.20
58070;BME280;43863;52.256;21.048;2022-07-23T09:42:22;100466.84;;;31.46;35.55
58070;BME280;43863;52.256;21.048;2022-07-23T09:44:54;100459.31;;;31.52;35.45
58070;BME280;43863;52.256;21.048;2022-07-23T09:47:25;100470.97;;;31.57;34.94
58070;BME280;43863;52.256;21.048;2022-07-23T09:50:02;100455.41;;;31.53;35.14
58070;BME280;43863;52.256;21.048;2022-07-23T09:52:44;100457.25;;;31.57;35.89
58070;BME280;43863;52.256;21.048;2022-07-23T09:55:15;100457.41;;;31.61;35.87
58070;BME280;43863;52.256;21.048;2022-07-23T09:57:44;100448.25;;;31.65;35.84
58070;BME280;43863;52.256;21.048;2022-07-23T10:00:13;100443.72;;;31.69;35.36
58070;BME280;43863;52.256;21.048;2022-07-23T10:02:41;100447.78;;;31.72;35.90
58070;BME280;43863;52.256;21.048;2022-07-23T10:05:28;100444.69;;;31.73;35.65
58070;BME280;43863;52.256;21.048;2022-07-23T10:08:17;100448.31;;;31.83;34.97
58070;BME280;43863;52.256;21.048;2022-07-23T10:11:04;100445.88;;;31.81;34.80
58070;BME280;43863;52.256;21.048;2022-07-23T10:13:50;100447.66;;;31.77;35.05
58070;BME280;43863;52.256;21.048;2022-07-23T10:16:46;100443.81;;;31.87;34.55
58070;BME280;43863;52.256;21.048;2022-07-23T10:19:16;100441.47;;;31.71;33.80
58070;BME280;43863;52.256;21.048;2022-07-23T10:21:54;100445.56;;;31.83;33.96
58070;BME280;43863;52.256;21.048;2022-07-23T10:33:15;100438.94;;;32.32;33.10
58070;BME280;43863;52.256;21.048;2022-07-23T10:36:09;100424.25;;;32.37;33.16
58070;BME280;43863;52.256;21.048;2022-07-23T10:39:03;100432.00;;;32.44;33.29
58070;BME280;43863;52.256;21.048;2022-07-23T10:41:35;100436.22;;;32.41;34.45
58070;BME280;43863;52.256;21.048;2022-07-23T10:47:01;100438.63;;;32.34;33.45
58070;BME280;43863;52.256;21.048;2022-07-23T10:49:42;100439.13;;;32.27;33.80
58070;BME280;43863;52.256;21.048;2022-07-23T10:54:42;100425.84;;;32.29;33.52
58070;BME280;43863;52.256;21.048;2022-07-23T10:57:12;100424.91;;;32.34;32.99
58070;BME280;43863;52.256;21.048;2022-07-23T11:02:30;100429.75;;;32.37;33.00
58070;BME280;43863;52.256;21.048;2022-07-23T11:05:07;100422.00;;;32.48;32.60
58070;BME280;43863;52.256;21.048;2022-07-23T11:10:53;100423.97;;;32.56;33.29
58070;BME280;43863;52.256;21.048;2022-07-23T11:32:04;100424.47;;;32.58;32.88
58070;BME280;43863;52.256;21.048;2022-07-23T11:37:04;100422.03;;;32.56;33.43
58070;BME280;43863;52.256;21.048;2022-07-23T11:39:33;100419.91;;;32.53;33.02
58070;BME280;43863;52.256;21.048;2022-07-23T11:42:03;100411.66;;;32.53;33.20
58070;BME280;43863;52.256;21.048;2022-07-23T11:44:37;100410.06;;;32.52;32.46
58070;BME280;43863;52.256;21.048;2022-07-23T11:47:09;100412.31;;;32.50;32.74
58070;BME280;43863;52.256;21.048;2022-07-23T11:49:41;100416.50;;;32.48;33.17
58070;BME280;43863;52.256;21.048;2022-07-23T11:52:19;100419.41;;;32.43;32.66
58070;BME280;43863;52.256;21.048;2022-07-23T11:54:49;100414.06;;;32.37;32.34
58070;BME280;43863;52.256;21.048;2022-07-23T11:57:18;100412.28;;;32.41;32.67
58070;BME280;43863;52.256;21.048;2022-07-23T11:59:50;100406.47;;;32.43;32.00
58070;BME280;43863;52.256;21.048;2022-07-23T12:02:20;100397.41;;;32.43;32.16
58070;BME280;43863;52.256;21.048;2022-07-23T12:04:50;100395.66;;;32.47;32.60
58070;BME280;43863;52.256;21.048;2022-07-23T12:07:34;100391.94;;;32.51;32.08
58070;BME280;43863;52.256;21.048;2022-07-23T12:10:22;100394.38;;;32.53;32.95
58070;BME280;43863;52.256;21.048;2022-07-23T12:12:54;100390.50;;;32.45;31.88
58070;BME280;43863;52.256;21.048;2022-07-23T12:15:38;100383.38;;;32.53;32.32
58070;BME280;43863;52.256;21.048;2022-07-23T12:18:09;100375.44;;;32.51;33.03
58070;BME280;43863;52.256;21.048;2022-07-23T12:20:40;100380.47;;;32.49;32.61
58070;BME280;43863;52.256;21.048;2022-07-23T12:23:11;100374.47;;;32.47;32.37
58070;BME280;43863;52.256;21.048;2022-07-23T12:25:49;100368.66;;;32.57;32.16
58070;BME280;43863;52.256;21.048;2022-07-23T12:28:20;100363.47;;;32.65;32.45
58070;BME280;43863;52.256;21.048;2022-07-23T12:30:50;100360.56;;;32.70;31.81
58070;BME280;43863;52.256;21.048;2022-07-23T12:33:33;100358.31;;;32.72;32.34
58070;BME280;43863;52.256;21.048;2022-07-23T12:36:05;100356.00;;;32.74;31.82
58070;BME280;43863;52.256;21.048;2022-07-23T12:38:47;100354.06;;;32.83;31.46
58070;BME280;43863;52.256;21.048;2022-07-23T12:41:18;100348.22;;;32.93;32.09
58070;BME280;43863;52.256;21.048;2022-07-23T12:43:46;100346.59;;;32.92;32.78
58070;BME280;43863;52.256;21.048;2022-07-23T12:46:19;100346.28;;;33.02;33.31
58070;BME280;43863;52.256;21.048;2022-07-23T12:51:30;100334.47;;;33.02;32.44
58070;BME280;43863;52.256;21.048;2022-07-23T12:54:08;100330.56;;;33.03;31.60
58070;BME280;43863;52.256;21.048;2022-07-23T12:56:39;100328.16;;;33.10;32.34
58070;BME280;43863;52.256;21.048;2022-07-23T12:59:15;100333.00;;;33.04;31.87
58070;BME280;43863;52.256;21.048;2022-07-23T13:02:04;100324.75;;;33.04;32.40
58070;BME280;43863;52.256;21.048;2022-07-23T13:04:36;100325.88;;;33.03;31.75
58070;BME280;43863;52.256;21.048;2022-07-23T13:07:05;100311.66;;;32.84;31.28
58070;BME280;43863;52.256;21.048;2022-07-23T13:09:34;100304.72;;;32.78;31.54
58070;BME280;43863;52.256;21.048;2022-07-23T13:12:08;100308.78;;;32.72;32.10
58070;BME280;43863;52.256;21.048;2022-07-23T13:14:38;100304.88;;;32.73;32.76
58070;BME280;43863;52.256;21.048;2022-07-23T13:17:06;100297.78;;;32.72;32.94
58070;BME280;43863;52.256;21.048;2022-07-23T13:19:36;100300.03;;;32.70;32.93
58070;BME280;43863;52.256;21.048;2022-07-23T13:22:07;100297.78;;;32.63;32.99
58070;BME280;43863;52.256;21.048;2022-07-23T13:24:36;100304.75;;;32.60;32.99
58070;BME280;43863;52.256;21.048;2022-07-23T13:27:06;100305.38;;;32.75;32.26
58070;BME280;43863;52.256;21.048;2022-07-23T13:29:40;100295.94;;;33.02;31.95
58070;BME280;43863;52.256;21.048;2022-07-23T13:32:08;100302.16;;;33.28;31.49
58070;BME280;43863;52.256;21.048;2022-07-23T13:34:37;100304.84;;;33.55;31.18
58070;BME280;43863;52.256;21.048;2022-07-23T13:37:07;100305.91;;;33.62;30.70
58070;BME280;43863;52.256;21.048;2022-07-23T13:39:35;100307.69;;;33.67;30.48
58070;BME280;43863;52.256;21.048;2022-07-23T13:42:05;100314.59;;;33.73;30.31
58070;BME280;43863;52.256;21.048;2022-07-23T13:44:35;100316.22;;;33.74;30.06
58070;BME280;43863;52.256;21.048;2022-07-23T13:47:03;100309.78;;;33.91;30.57
58070;BME280;43863;52.256;21.048;2022-07-23T13:49:31;100301.06;;;34.10;30.37
58070;BME280;43863;52.256;21.048;2022-07-23T13:52:03;100298.34;;;34.43;29.58